Time;durP1;ratioP1;P1;durP2;ratioP2;P2;SDS_P1;SDS_P2;PMS_P1;PMS_P2;Temp;Humidity;BMP_temperature;BMP_pressure;BME280_temperature;BME280_humidity;BME280_pressure;Samples;Min_cycle;Max_cycle;Signal;HPM_P1;HPM_P2
2022/05/05 00:00:19;;;;;;;9.38;3.60;;;;;;;10.55;100.00;99090.62;4340756;33;20407;-80
2022/05/05 00:03:02;;;;;;;6.90;3.90;;;;;;;10.82;100.00;99120.34;4359016;32;20091;-79
2022/05/05 00:05:29;;;;;;;11.30;4.22;;;;;;;10.79;100.00;99120.84;4370383;32;20072;-78
2022/05/05 00:07:56;;;;;;;9.13;3.95;;;;;;;10.48;100.00;99066.56;4369625;32;20047;-78
2022/05/05 00:16:02;;;;;;;7.10;3.53;;;;;;;10.82;100.00;99119.53;4367772;32;20438;-77
2022/05/05 00:18:29;;;;;;;6.55;4.05;;;;;;;10.84;100.00;99112.00;4369808;32;20158;-78
2022/05/05 00:20:55;;;;;;;8.75;4.30;;;;;;;10.76;100.00;99105.16;4369983;32;20036;-78
2022/05/05 00:23:22;;;;;;;10.68;4.32;;;;;;;10.57;100.00;99082.28;4350699;32;20075;-78
2022/05/05 00:25:48;;;;;;;8.00;3.85;;;;;;;10.59;100.00;99082.84;4365699;32;20039;-78
2022/05/05 00:28:15;;;;;;;3.75;2.90;;;;;;;10.63;100.00;99074.03;4366724;32;20043;-77
2022/05/05 00:30:41;;;;;;;6.00;3.50;;;;;;;10.92;100.00;99111.56;4367936;32;20040;-79
2022/05/05 00:33:08;;;;;;;9.30;3.70;;;;;;;10.87;100.00;99109.63;4370789;32;20106;-79
2022/05/05 00:35:34;;;;;;;6.57;3.33;;;;;;;10.84;100.00;99112.81;4358761;32;20027;-79
2022/05/05 00:38:01;;;;;;;7.80;3.05;;;;;;;10.91;100.00;99118.00;4372604;32;20372;-78
2022/05/05 00:40:27;;;;;;;7.30;3.03;;;;;;;10.64;100.00;99077.53;4356307;32;20073;-76
2022/05/05 00:42:54;;;;;;;5.60;3.37;;;;;;;10.70;100.00;99080.03;4375881;32;20035;-78
2022/05/05 00:45:20;;;;;;;6.25;3.08;;;;;;;10.66;100.00;99070.03;4373534;32;20563;-79
2022/05/05 00:47:47;;;;;;;6.25;3.78;;;;;;;10.76;100.00;99099.78;4372755;32;20047;-78
2022/05/05 00:50:16;;;;;;;6.43;3.15;;;;;;;10.79;100.00;99120.03;4373403;32;20035;-78
2022/05/05 00:52:42;;;;;;;7.60;3.70;;;;;;;10.59;100.00;99080.16;4370265;32;20461;-78
2022/05/05 00:55:16;;;;;;;8.00;3.90;;;;;;;10.81;100.00;99113.31;4372099;32;20416;-78
2022/05/05 00:57:42;;;;;;;7.12;3.30;;;;;;;10.73;100.00;99111.03;4358514;32;20085;-78
2022/05/05 01:00:09;;;;;;;4.95;3.05;;;;;;;10.85;100.00;99110.91;4351676;32;20070;-78
2022/05/05 01:02:36;;;;;;;4.70;3.10;;;;;;;10.96;100.00;99114.56;4341960;33;20062;-78
2022/05/05 01:05:02;;;;;;;14.38;3.50;;;;;;;10.71;100.00;99064.72;4354949;32;20032;-79
2022/05/05 01:07:29;;;;;;;4.12;3.17;;;;;;;11.04;100.00;99106.03;4356916;32;20346;-79
2022/05/05 01:09:56;;;;;;;5.00;2.92;;;;;;;10.92;100.00;99071.16;4358824;32;20462;-82
2022/05/05 01:12:28;;;;;;;7.60;2.67;;;;;;;10.93;100.00;99066.56;4356557;32;20027;-80
2022/05/05 01:14:55;;;;;;;5.55;3.90;;;;;;;10.75;100.00;99028.13;4352210;32;20071;-81
2022/05/05 01:17:22;;;;;;;6.47;3.05;;;;;;;11.13;100.00;99082.19;4362292;32;20094;-80
2022/05/05 01:19:48;;;;;;;9.38;3.20;;;;;;;11.29;100.00;99096.66;4371902;32;20069;-79
2022/05/05 01:22:15;;;;;;;9.63;3.10;;;;;;;11.25;100.00;99091.75;4369315;32;20069;-79
2022/05/05 01:30:12;;;;;;;11.93;2.53;;;;;;;11.11;100.00;99081.63;4370940;32;20074;-81
2022/05/05 01:32:38;;;;;;;6.97;2.60;;;;;;;11.25;100.00;99086.37;4357245;32;20032;-80
2022/05/05 01:35:05;;;;;;;5.75;3.05;;;;;;;11.11;100.00;99090.53;4370430;32;20064;-80
2022/05/05 01:37:31;;;;;;;4.45;2.53;;;;;;;11.22;100.00;99096.84;4357891;32;20082;-81
2022/05/05 01:39:58;;;;;;;4.68;2.85;;;;;;;11.13;100.00;99066.81;4369654;32;20039;-76
2022/05/05 01:42:24;;;;;;;4.30;2.70;;;;;;;11.03;100.00;99061.31;4371263;32;20074;-82
2022/05/05 01:44:51;;;;;;;3.53;2.83;;;;;;;11.22;100.00;99089.56;4370028;32;20061;-81
2022/05/05 01:47:17;;;;;;;6.18;3.10;;;;;;;11.07;100.00;99081.28;4371407;32;20389;-81
2022/05/05 01:49:45;;;;;;;7.43;3.28;;;;;;;11.01;100.00;99085.00;4351445;32;20053;-80
2022/05/05 01:52:18;;;;;;;6.22;2.85;;;;;;;10.74;100.00;99048.06;4339931;33;20081;-81
2022/05/05 01:54:44;;;;;;;4.97;3.30;;;;;;;11.02;100.00;99086.63;4363954;32;20092;-80
2022/05/05 01:57:10;;;;;;;6.07;2.87;;;;;;;11.01;100.00;99085.00;4371461;32;20047;-82
2022/05/05 01:59:37;;;;;;;4.45;3.10;;;;;;;10.79;100.00;99045.41;4370972;32;20036;-81
2022/05/05 02:02:04;;;;;;;5.80;3.37;;;;;;;10.98;100.00;99085.53;4370646;32;20475;-79
2022/05/05 02:04:30;;;;;;;5.78;3.05;;;;;;;10.90;100.00;99067.91;4369540;32;20151;-81
2022/05/05 02:06:57;;;;;;;8.23;3.22;;;;;;;10.94;100.00;99079.00;4370584;32;20384;-80
2022/05/05 02:09:23;;;;;;;12.65;3.40;;;;;;;11.00;100.00;99086.06;4371463;32;20032;-81
2022/05/05 02:11:50;;;;;;;7.00;2.97;;;;;;;10.97;100.00;99083.88;4357148;32;20057;-82
2022/05/05 02:14:17;;;;;;;7.03;3.10;;;;;;;10.98;100.00;99080.13;4370867;32;20069;-82
2022/05/05 02:16:43;;;;;;;4.43;2.22;;;;;;;10.89;100.00;99077.84;4369036;32;20048;-81
2022/05/05 02:19:09;;;;;;;9.90;3.47;;;;;;;10.91;100.00;99083.00;4357772;32;20073;-84
2022/05/05 02:21:36;;;;;;;7.28;2.90;;;;;;;10.86;100.00;99067.56;4370328;32;20039;-83
2022/05/05 02:24:02;;;;;;;7.45;3.45;;;;;;;10.95;100.00;99086.03;4370355;32;20114;-83
2022/05/05 02:26:29;;;;;;;9.35;3.15;;;;;;;10.86;100.00;99078.34;4357998;32;20077;-83
2022/05/05 02:29:02;;;;;;;3.97;2.87;;;;;;;10.54;100.00;99037.81;4369436;32;20479;-81
2022/05/05 02:31:28;;;;;;;5.78;3.25;;;;;;;10.59;100.00;99034.38;4371412;32;20044;-81
2022/05/05 02:33:55;;;;;;;5.43;2.95;;;;;;;10.69;100.00;99077.59;4356208;32;20072;-83
2022/05/05 02:39:07;;;;;;;8.70;2.92;;;;;;;10.60;100.00;99052.19;4352172;32;20053;-83
2022/05/05 02:41:34;;;;;;;14.27;3.03;;;;;;;10.46;100.00;99036.38;4351984;32;20061;-80
2022/05/05 02:44:00;;;;;;;5.35;2.45;;;;;;;10.37;100.00;99035.19;4355462;32;20147;-81
2022/05/05 02:46:27;;;;;;;9.40;3.00;;;;;;;10.60;100.00;99068.34;4369374;32;20418;-81
2022/05/05 02:48:53;;;;;;;7.43;3.03;;;;;;;10.37;100.00;99035.19;4368252;32;20073;-80
2022/05/05 02:51:19;;;;;;;7.18;3.10;;;;;;;10.45;100.00;99056.28;4369548;32;20964;-81
2022/05/05 02:56:38;;;;;;;6.72;3.00;;;;;;;10.32;100.00;99027.00;4367405;32;20069;-80
2022/05/05 02:59:04;;;;;;;4.93;3.08;;;;;;;10.56;100.00;99083.34;4371036;32;20051;-82
2022/05/05 03:01:31;;;;;;;7.00;3.45;;;;;;;10.63;100.00;99079.41;4370733;32;20090;-82
2022/05/05 03:03:57;;;;;;;8.02;3.42;;;;;;;10.39;100.00;99045.69;4356180;32;20065;-82
2022/05/05 03:06:23;;;;;;;10.30;3.42;;;;;;;10.58;100.00;99078.50;4369775;32;20345;-80
2022/05/05 03:08:50;;;;;;;9.20;2.70;;;;;;;10.37;100.00;99043.25;4368318;32;20069;-82
2022/05/05 03:11:16;;;;;;;6.90;2.87;;;;;;;10.59;100.00;99090.94;4370020;32;20073;-82
2022/05/05 03:13:43;;;;;;;5.43;3.28;;;;;;;10.43;100.00;99069.16;4369833;32;20078;-83
2022/05/05 03:16:09;;;;;;;6.50;3.92;;;;;;;10.53;100.00;99088.16;4368750;32;20065;-83
2022/05/05 03:18:40;;;;;;;11.75;3.08;;;;;;;10.43;100.00;99069.16;4353776;32;20441;-81
2022/05/05 03:21:07;;;;;;;11.57;3.55;;;;;;;10.47;100.00;99070.31;4370489;32;20379;-82
2022/05/05 03:23:33;;;;;;;7.95;2.83;;;;;;;10.56;100.00;99088.72;4369776;32;20040;-81
2022/05/05 03:26:00;;;;;;;6.90;3.70;;;;;;;10.26;100.00;99036.06;4370116;32;20439;-83
2022/05/05 03:28:26;;;;;;;12.27;3.83;;;;;;;10.09;100.00;99039.59;4346470;32;20036;-79
2022/05/05 03:30:53;;;;;;;9.40;3.87;;;;;;;10.21;100.00;99049.44;4353363;32;20109;-82
2022/05/05 03:33:19;;;;;;;7.85;3.17;;;;;;;10.45;100.00;99085.91;4354054;33;20083;-82
2022/05/05 03:35:46;;;;;;;6.45;2.97;;;;;;;10.50;100.00;99091.34;4355453;33;20402;-81
2022/05/05 03:38:12;;;;;;;3.78;3.15;;;;;;;10.39;100.00;99083.38;4362344;32;20076;-82
2022/05/05 03:40:39;;;;;;;4.97;2.95;;;;;;;10.53;100.00;99095.44;4357043;32;20048;-77
2022/05/05 03:43:05;;;;;;;10.65;3.42;;;;;;;10.47;100.00;99091.84;4352806;33;20095;-87
2022/05/05 03:45:31;;;;;;;9.00;3.67;;;;;;;10.44;100.00;99103.09;4366047;33;20115;-87
2022/05/05 03:47:58;;;;;;;6.60;3.15;;;;;;;10.17;100.00;99060.69;4363298;33;20107;-89
2022/05/05 03:50:24;;;;;;;6.82;3.00;;;;;;;10.43;100.00;99100.66;4345309;33;20032;-92
2022/05/05 03:52:50;;;;;;;6.97;3.40;;;;;;;10.42;100.00;99099.84;4357450;32;20038;-90
2022/05/05 03:55:17;;;;;;;6.15;3.40;;;;;;;10.38;100.00;99108.66;4371418;32;20361;-92
2022/05/05 03:57:44;;;;;;;7.32;3.75;;;;;;;10.26;100.00;99096.09;4357713;32;20036;-94
2022/05/05 04:00:10;;;;;;;6.70;3.58;;;;;;;9.95;100.00;99057.13;4355245;32;20434;-91
2022/05/05 04:02:38;;;;;;;7.03;3.53;;;;;;;9.98;100.00;99068.19;4343124;33;20040;-93
2022/05/05 04:05:05;;;;;;;4.30;3.28;;;;;;;10.23;100.00;99096.56;4341803;32;20319;-91
2022/05/05 04:07:32;;;;;;;9.13;3.28;;;;;;;10.17;100.00;99102.94;4373518;32;20048;-93
2022/05/05 04:09:58;;;;;;;3.95;2.97;;;;;;;10.24;100.00;99108.16;4374868;32;20044;-88
2022/05/05 04:12:24;;;;;;;11.05;4.47;;;;;;;10.18;100.00;99110.75;4359854;32;20057;-90
2022/05/05 04:14:51;;;;;;;4.22;3.22;;;;;;;10.13;100.00;99113.38;4360127;32;20122;-85
2022/05/05 04:17:17;;;;;;;23.00;3.60;;;;;;;10.11;100.00;99110.09;4355551;32;20056;-82
2022/05/05 04:19:44;;;;;;;10.70;3.33;;;;;;;10.04;100.00;99114.84;4358002;32;20353;-91
2022/05/05 04:22:11;;;;;;;12.63;3.22;;;;;;;10.09;100.00;99123.00;4357003;32;20058;-89
2022/05/05 04:24:37;;;;;;;5.30;3.60;;;;;;;10.04;100.00;99104.09;4357430;32;20081;-81
2022/05/05 04:27:04;;;;;;;7.78;3.12;;;;;;;10.09;100.00;99123.00;4357496;32;20207;-86
2022/05/05 04:29:30;;;;;;;14.87;3.58;;;;;;;10.08;100.00;99110.59;4342004;32;20024;-86
2022/05/05 04:31:57;;;;;;;8.23;3.67;;;;;;;9.87;100.00;99081.75;4357216;32;20056;-92
2022/05/05 04:34:23;;;;;;;10.65;3.75;;;;;;;10.06;100.00;99122.66;4359954;32;20358;-84
2022/05/05 04:36:50;;;;;;;6.93;3.28;;;;;;;10.00;100.00;99124.44;4357583;32;20036;-89
2022/05/05 04:39:16;;;;;;;13.95;3.42;;;;;;;10.01;100.00;99126.09;4358726;32;20102;-90
2022/05/05 04:41:43;;;;;;;10.95;3.10;;;;;;;9.92;100.00;99114.09;4356479;32;20105;-86
2022/05/05 04:44:09;;;;;;;13.45;3.05;;;;;;;9.86;100.00;99086.31;4358858;32;20895;-87
2022/05/05 04:46:35;;;;;;;19.45;3.78;;;;;;;9.78;100.00;99078.63;4359766;32;20044;-90
2022/05/05 04:49:02;;;;;;;28.45;3.83;;;;;;;10.01;100.00;99096.50;4351854;32;20048;-91
2022/05/05 04:51:28;;;;;;;5.72;3.30;;;;;;;9.88;100.00;99083.38;4343393;33;20353;-90
2022/05/05 04:53:54;;;;;;;7.40;3.30;;;;;;;10.18;100.00;99121.53;4355466;32;20064;-89
2022/05/05 04:56:21;;;;;;;8.82;3.00;;;;;;;10.25;100.00;99120.56;4347596;32;20488;-89
2022/05/05 04:58:47;;;;;;;5.28;3.58;;;;;;;10.22;100.00;99126.41;4346695;32;20448;-88
2022/05/05 05:01:13;;;;;;;5.32;3.35;;;;;;;10.33;100.00;99128.25;4365308;32;20064;-86
2022/05/05 05:03:40;;;;;;;7.53;2.97;;;;;;;10.26;100.00;99127.53;4373098;32;20034;-91
2022/05/05 05:06:08;;;;;;;7.70;3.25;;;;;;;10.24;100.00;99097.38;4358480;32;20036;-91
2022/05/05 05:08:35;;;;;;;7.40;2.95;;;;;;;10.51;100.00;99133.38;4359476;32;20043;-86
2022/05/05 05:11:08;;;;;;;11.95;3.40;;;;;;;10.63;100.00;99132.47;4373723;32;20064;-87
2022/05/05 05:13:36;;;;;;;7.82;2.90;;;;;;;10.24;100.00;99102.75;4371151;32;20039;-86
2022/05/05 05:16:04;;;;;;;5.22;3.25;;;;;;;10.63;100.00;99137.84;4371195;32;20091;-76
2022/05/05 05:18:30;;;;;;;6.65;3.40;;;;;;;10.58;100.00;99129.66;4372188;32;20396;-87
2022/05/05 05:20:57;;;;;;;11.25;3.20;;;;;;;10.44;100.00;99081.56;4372395;32;20069;-85
2022/05/05 05:23:23;;;;;;;8.77;3.00;;;;;;;10.51;100.00;99103.75;4358838;32;20042;-90
2022/05/05 05:25:56;;;;;;;7.82;3.40;;;;;;;10.85;100.00;99136.00;4371454;32;20035;-91
2022/05/05 05:28:22;;;;;;;12.77;3.62;;;;;;;10.84;100.00;99128.97;4358301;32;20187;-87
2022/05/05 05:30:49;;;;;;;6.30;3.20;;;;;;;10.64;100.00;99096.38;4348499;32;20071;-86
2022/05/05 05:33:16;;;;;;;6.32;2.95;;;;;;;10.95;100.00;99127.22;4365226;32;20035;-86
2022/05/05 05:35:44;;;;;;;3.70;2.95;;;;;;;10.73;100.00;99089.50;4374572;32;20031;-84
2022/05/05 05:38:12;;;;;;;8.30;4.18;;;;;;;10.95;100.00;99119.16;4360145;32;20085;-89
2022/05/05 05:40:38;;;;;;;9.50;3.20;;;;;;;11.08;100.00;99129.53;4369370;32;20047;-89
2022/05/05 05:43:05;;;;;;;10.75;3.87;;;;;;;11.04;100.00;99117.66;4372030;32;20083;-88
2022/05/05 05:45:31;;;;;;;19.12;3.85;;;;;;;10.98;100.00;99120.53;4373518;32;20040;-82
2022/05/05 05:47:58;;;;;;;10.77;3.75;;;;;;;11.18;100.00;99128.84;4370871;32;20047;-81
2022/05/05 05:50:24;;;;;;;5.82;3.78;;;;;;;11.00;100.00;99099.53;4360314;32;20035;-81
2022/05/05 05:52:51;;;;;;;8.90;3.97;;;;;;;11.24;100.00;99127.03;4369951;32;20069;-88
2022/05/05 05:55:17;;;;;;;12.57;3.75;;;;;;;11.24;100.00;99133.25;4378736;32;20118;-90
2022/05/05 05:57:43;;;;;;;14.90;4.22;;;;;;;11.07;100.00;99095.59;4363782;32;20123;-84
2022/05/05 06:00:11;;;;;;;16.83;3.45;;;;;;;11.44;100.00;99137.25;4374419;32;20146;-86
2022/05/05 06:05:22;;;;;;;9.93;4.68;;;;;;;11.52;100.00;99134.13;4371537;32;20040;-78
2022/05/05 06:07:49;;;;;;;9.93;4.32;;;;;;;11.41;100.00;99105.41;4358555;32;20062;-83
2022/05/05 06:10:19;;;;;;;11.05;3.78;;;;;;;11.40;100.00;99101.09;4371505;32;20038;-85
2022/05/05 06:12:46;;;;;;;11.27;3.97;;;;;;;11.76;100.00;99148.13;4358651;32;20046;-81
2022/05/05 06:15:13;;;;;;;18.40;4.90;;;;;;;11.52;100.00;99092.84;4372026;32;20112;-79
2022/05/05 06:17:40;;;;;;;15.15;3.80;;;;;;;11.94;100.00;99141.56;4371235;32;20035;-81
2022/05/05 06:20:07;;;;;;;11.15;4.97;;;;;;;11.97;100.00;99145.66;4372374;32;20051;-83
2022/05/05 06:22:34;;;;;;;20.20;4.55;;;;;;;11.79;100.00;99106.31;4369126;32;20073;-83
2022/05/05 06:25:01;;;;;;;7.15;3.85;;;;;;;11.64;100.00;99121.28;4348697;32;20040;-83
2022/05/05 06:27:28;;;;;;;8.88;4.75;;;;;;;11.87;100.00;99145.50;4369550;32;20043;-82
2022/05/05 06:29:55;;;;;;;14.02;4.57;;;;;;;11.90;100.00;99151.22;4372479;32;20073;-82
2022/05/05 06:32:22;;;;;;;11.00;4.07;;;;;;;11.95;100.00;99147.75;4371708;32;20035;-83
2022/05/05 06:34:48;;;;;;;9.98;3.87;;;;;;;12.19;100.00;99142.88;4371324;32;20047;-82
2022/05/05 06:37:15;;;;;;;14.73;4.37;;;;;;;12.08;100.00;99141.16;4369054;32;20036;-78
2022/05/05 06:39:41;;;;;;;13.32;4.25;;;;;;;12.23;100.00;99154.75;4355905;32;20448;-83
2022/05/05 06:42:08;;;;;;;11.52;3.70;;;;;;;12.28;100.00;99146.69;4356661;32;20031;-82
2022/05/05 06:44:36;;;;;;;6.68;4.18;;;;;;;12.51;100.00;99150.13;4358897;32;20062;-82
2022/05/05 06:47:04;;;;;;;11.70;3.95;;;;;;;12.23;100.00;99106.19;4342107;33;20334;-83
2022/05/05 06:49:31;;;;;;;12.15;3.78;;;;;;;12.60;100.00;99145.84;4354155;32;20047;-83
2022/05/05 06:51:57;;;;;;;10.02;5.62;;;;;;;12.45;100.00;99129.56;4356610;32;20062;-85
2022/05/05 06:54:24;;;;;;;6.18;4.30;;;;;;;12.68;100.00;99156.19;4369388;32;20075;-83
2022/05/05 06:56:50;;;;;;;10.05;5.20;;;;;;;12.70;100.00;99143.22;4372137;32;20044;-89
2022/05/05 06:59:17;;;;;;;8.75;4.60;;;;;;;12.38;100.00;99101.97;4367572;32;20044;-79
2022/05/05 07:01:52;;;;;;;11.63;4.80;;;;;;;12.79;100.00;99156.25;4370413;32;20051;-83
2022/05/05 07:07:13;;;;;;;15.10;5.15;;;;;;;12.90;100.00;99163.34;4370535;32;20035;-84
2022/05/05 07:12:27;;;;;;;24.15;4.93;;;;;;;13.25;100.00;99164.59;4370613;32;20069;-85
2022/05/05 07:14:54;;;;;;;14.00;5.12;;;;;;;13.29;100.00;99160.28;4362143;32;20048;-83
2022/05/05 07:17:22;;;;;;;10.57;5.47;;;;;;;13.28;100.00;99158.66;4353313;32;20028;-88
2022/05/05 07:19:48;;;;;;;20.73;5.45;;;;;;;13.33;100.00;99156.00;4356917;32;20428;-85
2022/05/05 07:22:15;;;;;;;12.23;4.80;;;;;;;13.35;100.00;99159.25;4343403;32;20413;-87
2022/05/05 07:24:42;;;;;;;7.35;4.70;;;;;;;13.54;100.00;99164.19;4354659;32;20058;-86
2022/05/05 07:27:10;;;;;;;10.05;5.40;;;;;;;13.56;100.00;99151.19;4357138;32;20047;-85
2022/05/05 07:29:41;;;;;;;15.55;5.62;;;;;;;13.66;100.00;99159.38;4369498;32;20441;-83
2022/05/05 07:32:08;;;;;;;10.35;4.05;;;;;;;13.61;100.00;99129.59;4372545;32;20035;-82
2022/05/05 07:34:35;;;;;;;22.87;4.80;;;;;;;13.95;100.00;99162.37;4369241;32;20097;-81
2022/05/05 07:37:02;;;;;;;9.52;4.62;;;;;;;13.98;100.00;99158.34;4358802;32;20077;-84
2022/05/05 07:39:29;;;;;;;10.50;5.45;;;;;;;14.07;100.00;99153.19;4358860;32;20053;-85
2022/05/05 07:41:55;;;;;;;8.68;5.32;;;;;;;13.88;100.00;99123.97;4373347;32;20030;-83
2022/05/05 07:44:22;;;;;;;16.58;6.22;;;;;;;14.10;100.00;99161.56;4372772;32;20040;-80
2022/05/05 07:46:48;;;;;;;12.75;4.62;;;;;;;14.08;100.00;99123.13;4372677;32;20040;-80
2022/05/05 07:49:15;;;;;;;15.05;5.57;;;;;;;14.41;100.00;99156.19;4357940;32;20085;-81
2022/05/05 07:51:41;;;;;;;16.37;5.53;;;;;;;14.35;100.00;99159.97;4359200;32;20065;-81
2022/05/05 07:56:53;;;;;;;15.13;5.32;;;;;;;14.62;100.00;99164.34;4358622;32;20047;-83
2022/05/05 07:59:20;;;;;;;18.83;5.90;;;;;;;14.78;100.00;99168.63;4345554;32;20053;-81
2022/05/05 08:01:46;;;;;;;14.93;5.07;;;;;;;14.60;100.00;99142.94;4358828;32;20708;-85
2022/05/05 08:04:13;;;;;;;13.90;5.57;;;;;;;14.87;100.00;99172.41;4358749;32;20036;-83
2022/05/05 08:06:40;;;;;;;11.73;6.47;;;;;;;14.93;100.00;99170.50;4357406;32;20040;-82
2022/05/05 08:09:07;;;;;;;22.90;7.53;;;;;;;14.96;100.00;99177.28;4358525;32;20069;-82
2022/05/05 08:11:36;;;;;;;16.67;5.72;;;;;;;14.86;100.00;99142.88;4359217;32;20292;-82
2022/05/05 08:14:04;;;;;;;10.70;6.00;;;;;;;15.16;100.00;99174.50;4358934;32;20039;-82
2022/05/05 08:16:31;;;;;;;9.07;6.10;;;;;;;15.24;100.00;99173.94;4354636;32;20065;-83
2022/05/05 08:18:58;;;;;;;21.45;6.00;;;;;;;15.13;100.00;99130.88;4357746;32;20073;-84
2022/05/05 08:21:25;;;;;;;7.70;5.37;;;;;;;15.54;100.00;99174.06;4358001;32;20067;-83
2022/05/05 08:28:28;;;;;;;27.87;7.15;;;;;;;15.34;100.00;99131.56;4357199;32;20066;-82
2022/05/05 08:29:26;;;;;;;16.30;6.22;;;;;;;15.39;100.00;99136.97;4358201;32;20036;-83
2022/05/05 08:31:53;;;;;;;15.60;5.55;;;;;;;15.61;100.00;99161.81;4358000;32;20065;-80
2022/05/05 08:34:20;;;;;;;22.83;5.18;;;;;;;15.67;100.00;99148.22;4340157;33;20024;-80
2022/05/05 08:36:46;;;;;;;18.83;6.22;;;;;;;15.98;100.00;99178.75;4357535;32;20237;-81
2022/05/05 08:39:13;;;;;;;10.13;5.40;;;;;;;15.79;100.00;99154.97;4345282;32;20065;-83
2022/05/05 08:41:40;;;;;;;21.75;5.97;;;;;;;16.07;100.00;99165.38;4347741;32;20095;-82
2022/05/05 08:44:07;;;;;;;8.80;5.57;;;;;;;16.08;100.00;99167.00;4345593;33;20366;-79
2022/05/05 08:46:35;;;;;;;9.30;5.35;;;;;;;16.11;100.00;99144.69;4342649;33;20519;-84
2022/05/05 08:49:06;;;;;;;23.83;6.22;;;;;;;16.45;100.00;99174.59;4359407;32;20061;-83
2022/05/05 08:51:44;;;;;;;12.77;6.50;;;;;;;16.25;100.00;99151.09;4364335;32;20083;-87
2022/05/05 08:54:17;;;;;;;9.85;5.78;;;;;;;16.33;100.00;99180.38;4352486;32;20087;-80
2022/05/05 08:56:47;;;;;;;12.68;6.00;;;;;;;16.46;100.00;99189.78;4366052;32;20096;-84
2022/05/05 08:59:16;;;;;;;15.30;6.07;;;;;;;16.52;100.00;99188.66;4362123;32;20083;-82
2022/05/05 09:01:42;;;;;;;12.48;6.43;;;;;;;16.62;100.00;99192.37;4350724;33;20091;-79
2022/05/05 09:04:09;;;;;;;11.93;5.75;;;;;;;16.78;100.00;99196.56;4365213;32;20104;-80
2022/05/05 09:06:51;;;;;;;11.18;5.97;;;;;;;16.88;100.00;99195.69;4346785;32;20075;-81
2022/05/05 09:09:29;;;;;;;18.55;6.22;;;;;;;16.85;100.00;99191.66;4345208;32;20027;-80
2022/05/05 09:12:14;;;;;;;12.85;6.35;;;;;;;16.75;100.00;99152.84;4340598;33;20432;-79
2022/05/05 09:14:50;;;;;;;13.35;5.30;;;;;;;17.06;100.00;99192.25;4344625;32;20023;-79
2022/05/05 09:17:22;;;;;;;9.02;6.18;;;;;;;17.11;100.00;99182.41;4357410;32;20069;-80
2022/05/05 09:19:54;;;;;;;6.93;5.87;;;;;;;17.21;100.00;99187.72;4342505;33;20031;-84
2022/05/05 09:22:23;;;;;;;13.70;5.75;;;;;;;17.17;100.00;99167.66;4358436;32;20392;-85
2022/05/05 09:24:51;;;;;;;16.05;6.10;;;;;;;17.34;100.00;99173.44;4344875;32;20049;-84
2022/05/05 09:27:24;;;;;;;14.90;5.78;;;;;;;17.53;100.00;99180.81;4356627;32;20058;-78
2022/05/05 09:30:06;;;;;;;15.10;5.35;;;;;;;17.72;100.00;99181.62;4341860;33;20058;-81
2022/05/05 09:32:34;;;;;;;15.60;6.68;;;;;;;17.93;100.00;99192.28;4343174;33;20065;-83
2022/05/05 09:35:06;;;;;;;15.20;5.93;;;;;;;17.83;100.00;99157.00;4341779;33;20065;-80
2022/05/05 09:37:33;;;;;;;12.10;6.18;;;;;;;17.87;100.00;99160.75;4342615;33;20122;-86
2022/05/05 09:40:00;;;;;;;15.23;6.22;;;;;;;17.89;100.00;99153.94;4354863;32;20040;-83
2022/05/05 09:42:36;;;;;;;15.52;6.12;;;;;;;18.15;100.00;99181.59;4356919;32;20066;-82
2022/05/05 09:45:25;;;;;;;21.23;7.45;;;;;;;18.07;100.00;99149.56;4343252;32;20058;-79
2022/05/05 09:47:54;;;;;;;10.13;6.12;;;;;;;18.20;100.00;99179.91;4357014;32;20380;-83
2022/05/05 09:50:22;;;;;;;11.27;6.28;;;;;;;18.44;100.00;99188.75;4358001;32;20031;-82
2022/05/05 09:58:35;;;;;;;10.77;6.50;;;;;;;18.46;98.43;99188.47;4356459;32;20069;-84
2022/05/05 10:01:05;;;;;;;15.10;7.03;;;;;;;18.58;96.77;99179.84;4344651;32;20059;-83
2022/05/05 10:06:36;;;;;;;10.18;6.55;;;;;;;18.82;90.61;99185.94;4357027;32;20426;-83
2022/05/05 10:09:08;;;;;;;12.98;6.75;;;;;;;18.96;89.73;99182.47;4356877;32;20043;-86
2022/05/05 10:11:35;;;;;;;11.80;6.72;;;;;;;18.88;91.68;99157.50;4343483;33;20095;-85
2022/05/05 10:14:04;;;;;;;15.60;6.60;;;;;;;18.93;91.74;99185.78;4357769;32;20032;-85
2022/05/05 10:16:31;;;;;;;13.07;6.10;;;;;;;18.98;91.18;99188.41;4340000;33;20070;-83
2022/05/05 10:18:58;;;;;;;12.40;5.78;;;;;;;18.82;87.11;99163.31;4344969;32;20040;-84
2022/05/05 10:21:43;;;;;;;7.47;4.60;;;;;;;18.96;84.56;99179.75;4355372;32;20101;-84
2022/05/05 10:24:24;;;;;;;11.95;5.07;;;;;;;18.82;73.12;99164.13;4344009;32;20388;-75
2022/05/05 10:26:53;;;;;;;9.65;4.80;;;;;;;18.83;77.17;99181.31;4355993;32;20043;-78
2022/05/05 10:29:32;;;;;;;5.62;5.03;;;;;;;18.44;77.47;99147.06;4355706;32;20078;-74
2022/05/05 10:32:12;;;;;;;15.80;4.57;;;;;;;18.85;81.60;99179.91;4357253;32;20053;-74
2022/05/05 10:34:41;;;;;;;17.37;6.03;;;;;;;18.99;78.11;99173.69;4343438;32;20035;-75
2022/05/05 10:37:10;;;;;;;9.38;5.20;;;;;;;19.35;79.55;99167.50;4355863;32;20039;-74
2022/05/05 10:39:48;;;;;;;10.85;4.72;;;;;;;19.56;75.86;99165.97;4355847;32;20061;-74
2022/05/05 10:42:21;;;;;;;9.02;5.30;;;;;;;19.62;77.87;99131.16;4343474;32;20433;-76
2022/05/05 10:45:17;;;;;;;12.52;5.40;;;;;;;20.13;76.82;99160.03;4356823;32;20077;-73
2022/05/05 10:47:46;;;;;;;18.77;6.12;;;;;;;20.05;69.68;99168.19;4357228;32;20061;-73
2022/05/05 10:50:49;;;;;;;9.10;5.43;;;;;;;19.77;70.23;99138.25;4355070;32;20032;-74
2022/05/05 10:53:41;;;;;;;7.57;5.72;;;;;;;19.90;71.74;99137.38;4341588;33;20039;-75
2022/05/05 10:56:20;;;;;;;8.32;6.00;;;;;;;20.56;71.11;99158.72;4327878;33;20032;-73
2022/05/05 10:59:09;;;;;;;22.10;10.45;;;;;;;19.93;71.24;99131.28;4343082;32;20430;-76
2022/05/05 11:01:42;;;;;;;10.30;6.40;;;;;;;19.96;70.67;99162.66;4356293;32;20048;-74
2022/05/05 11:04:18;;;;;;;10.27;6.45;;;;;;;20.12;71.91;99144.00;4355331;32;20617;-74
2022/05/05 11:06:48;;;;;;;10.63;6.72;;;;;;;19.65;79.42;99157.06;4354720;32;20051;-74
2022/05/05 11:09:37;;;;;;;8.23;6.37;;;;;;;19.73;74.50;99153.59;4354962;32;20077;-74
2022/05/05 11:12:17;;;;;;;19.02;6.00;;;;;;;20.58;70.54;99140.09;4354452;32;20093;-76
2022/05/05 11:23:46;;;;;;;14.07;6.30;;;;;;;21.38;62.68;99156.53;4356187;32;20031;-73
2022/05/05 11:26:17;;;;;;;14.65;6.00;;;;;;;22.34;68.79;99125.66;4356662;32;20057;-73
2022/05/05 11:28:44;;;;;;;12.60;7.23;;;;;;;22.30;56.79;99119.22;4355115;32;20058;-75
2022/05/05 11:31:30;;;;;;;12.37;6.50;;;;;;;22.34;61.09;99153.09;4355469;32;20031;-73
2022/05/05 11:34:00;;;;;;;19.52;6.35;;;;;;;22.26;59.04;99146.47;4343370;33;20039;-74
2022/05/05 11:36:34;;;;;;;11.07;4.40;;;;;;;22.03;58.15;99158.72;4356452;33;20036;-75
2022/05/05 11:39:02;;;;;;;5.75;4.97;;;;;;;22.42;47.26;99155.00;4354799;33;20721;-74
2022/05/05 11:41:29;;;;;;;11.20;4.57;;;;;;;22.89;45.53;99134.22;4355571;33;20057;-74
2022/05/05 11:46:41;;;;;;;8.32;5.65;;;;;;;23.52;44.16;99157.19;4355216;33;20044;-74
2022/05/05 11:49:08;;;;;;;8.38;4.28;;;;;;;23.36;39.15;99159.69;4356329;33;20035;-74
2022/05/05 11:51:35;;;;;;;7.18;4.78;;;;;;;23.78;40.44;99158.94;4355866;33;20108;-74
2022/05/05 11:54:04;;;;;;;6.25;3.55;;;;;;;24.37;38.47;99148.94;4355969;33;20044;-73
2022/05/05 11:56:32;;;;;;;9.05;4.00;;;;;;;24.06;39.20;99152.91;4354882;33;20069;-73
2022/05/05 12:02:08;;;;;;;9.70;3.92;;;;;;;23.19;44.48;99154.28;4354653;33;20032;-74
2022/05/05 12:04:38;;;;;;;6.53;4.78;;;;;;;22.72;43.48;99146.06;4356297;33;20066;-73
2022/05/05 12:07:06;;;;;;;8.40;4.32;;;;;;;22.45;43.76;99142.59;4341659;33;20454;-72
2022/05/05 12:09:33;;;;;;;9.70;4.93;;;;;;;22.09;46.33;99113.56;4356454;33;20065;-73
2022/05/05 12:12:11;;;;;;;9.63;4.87;;;;;;;21.86;53.35;99111.00;4354609;33;20059;-72
2022/05/05 12:14:49;;;;;;;4.35;3.85;;;;;;;21.69;46.06;99141.94;4355619;33;20044;-74
2022/05/05 12:17:18;;;;;;;5.93;5.12;;;;;;;22.23;45.88;99135.34;4352870;33;20078;-75
2022/05/05 12:19:59;;;;;;;4.53;4.00;;;;;;;21.19;50.92;99137.63;4352155;32;20121;-74
2022/05/05 12:22:30;;;;;;;6.65;4.55;;;;;;;21.92;51.32;99131.66;4346305;32;20434;-75
2022/05/05 12:25:06;;;;;;;6.57;4.10;;;;;;;22.54;46.55;99134.31;4352001;33;20051;-76